Strona główna
METAR-TAF:

METAR-TAF

Lotnisko :

Port lotniczy Gibraltar

Gibraltar, Gibraltar

Szerokość geograficzna: 36-09N, Długość geograficzna: 005-21W, wysokość: 5 m

Aktualna obserwacja pogody

Raport powstał 47 minut temu, godzina 18:50 UTC
Wiatr 5 kt od wschodnio-północny wschód
Temperatura 22°C
Wilgotność 83%
Ciśnienie 1009 hPa
Widzialność 10 km lub więcej

METAR: LXGB 251850Z AUTO 06005KT 9999 NCD 22/19 Q1009

czas: 21:37 (19:37 UTC)

Prognoza

Raport powstał 2 godziny i 41 minut temu, godzina 16:56 UTC
Prognoza ważna od 25 godzina 18 UTC do 25 godzina 22 UTC
Wiatr 10 kt od wschód
Widzialność 10 km lub więcej
Brak chmur poniżej 1500 m i brak chmur cumulonimbus
Stopniowe zmiany
od 25 godzina 18 UTC do 25 godzina 21 UTC
Wiatr 4 kt z kierunków zmiennych

TAF: LXGB 251656Z 2518/2522 08010KT CAVOK BECMG 2518/2521 VRB04KT

Obserwacja i prognoza pogody dla ponad 4000 lotnisk (raport METAR i TAF).

Dostępne stacje oznaczono żółtymi i czerwonymi punktami na mapie.

Najedź kursorem aby zobaczyć nazwę stacji.

Kliknij aby zobaczyć obserwacje i prognozy pogody.

Aby zmienić mapę: kliknij na zielony przycisk z czarnym krzyżykiem, aby powiększyć; na zielony przycisk z myślnikiem, aby pomniejszyć; na zielone strzałki, aby przejść do map sąsiednich.


METAR-TAF: